Time;durP1;ratioP1;P1;durP2;ratioP2;P2;SDS_P1;SDS_P2;PMS_P1;PMS_P2;Temp;Humidity;BMP_temperature;BMP_pressure;BME280_temperature;BME280_humidity;BME280_pressure;Samples;Min_cycle;Max_cycle;Signal;HPM_P1;HPM_P2
2023/04/18 00:01:53;;;;;;;6.13;4.10;;;;;;;;;;5051353;28;20429;-74
2023/04/18 00:04:18;;;;;;;7.50;4.20;;;;;;;;;;5051034;28;20075;-75
2023/04/18 00:06:46;;;;;;;5.88;3.88;;;;;;;;;;5051226;28;20079;-76
2023/04/18 00:09:11;;;;;;;6.63;4.50;;;;;;;;;;5051404;28;20017;-76
2023/04/18 00:11:36;;;;;;;5.97;4.35;;;;;;;;;;5032529;28;20036;-76
2023/04/18 00:14:02;;;;;;;6.45;4.38;;;;;;;;;;5051047;28;20436;-75
2023/04/18 00:16:27;;;;;;;5.45;4.22;;;;;;;;;;5051236;28;20023;-76
2023/04/18 00:18:53;;;;;;;6.38;4.13;;;;;;;;;;5051338;28;20036;-75
2023/04/18 00:21:18;;;;;;;6.65;4.18;;;;;;;;;;5050970;28;20603;-75
2023/04/18 00:23:44;;;;;;;6.40;4.00;;;;;;;;;;5050686;28;20460;-75
2023/04/18 00:26:10;;;;;;;9.10;4.05;;;;;;;;;;5051061;28;20025;-73
2023/04/18 00:28:36;;;;;;;6.03;4.15;;;;;;;;;;5050969;28;20547;-75
2023/04/18 00:31:01;;;;;;;6.03;4.20;;;;;;;;;;5051041;28;20365;-75
2023/04/18 00:33:27;;;;;;;5.10;3.75;;;;;;;;;;5050909;28;20032;-75
2023/04/18 00:35:52;;;;;;;6.72;4.00;;;;;;;;;;5050876;28;20025;-76
2023/04/18 00:38:18;;;;;;;6.07;4.43;;;;;;;;;;5032926;28;20025;-76
2023/04/18 00:40:43;;;;;;;7.70;4.38;;;;;;;;;;5050662;28;20071;-75
2023/04/18 00:43:12;;;;;;;6.38;4.47;;;;;;;;;;5050348;28;20170;-75
2023/04/18 00:45:37;;;;;;;6.22;4.28;;;;;;;;;;5050550;28;20029;-75
2023/04/18 00:48:03;;;;;;;6.28;4.20;;;;;;;;;;5050676;28;20120;-75
2023/04/18 00:50:28;;;;;;;6.72;4.10;;;;;;;;;;5050501;28;20053;-76
2023/04/18 00:52:55;;;;;;;6.10;4.40;;;;;;;;;;5050780;28;20025;-75
2023/04/18 00:55:21;;;;;;;6.38;4.30;;;;;;;;;;5050092;28;20028;-74
2023/04/18 00:57:46;;;;;;;5.82;4.40;;;;;;;;;;5032454;28;20033;-74
2023/04/18 01:00:13;;;;;;;6.10;4.40;;;;;;;;;;5050204;28;20021;-76
2023/04/18 01:02:39;;;;;;;6.20;4.60;;;;;;;;;;5050469;28;20029;-75
2023/04/18 01:05:05;;;;;;;5.50;4.32;;;;;;;;;;5050193;28;20032;-75
2023/04/18 01:07:32;;;;;;;6.65;4.68;;;;;;;;;;5050354;28;20115;-75
2023/04/18 01:09:58;;;;;;;6.30;4.68;;;;;;;;;;5050318;28;20029;-74
2023/04/18 01:12:24;;;;;;;7.13;4.38;;;;;;;;;;5049878;28;20051;-76
2023/04/18 01:14:49;;;;;;;6.18;4.53;;;;;;;;;;5049759;28;20640;-76
2023/04/18 01:17:16;;;;;;;7.47;4.75;;;;;;;;;;5050025;28;20078;-76
2023/04/18 01:19:41;;;;;;;7.53;5.25;;;;;;;;;;5049801;28;20079;-75
2023/04/18 01:22:07;;;;;;;6.18;4.72;;;;;;;;;;5049952;28;20439;-75
2023/04/18 01:24:32;;;;;;;6.53;4.80;;;;;;;;;;5050053;28;20591;-75
2023/04/18 01:26:58;;;;;;;7.72;4.93;;;;;;;;;;5049895;28;20025;-76
2023/04/18 01:29:24;;;;;;;7.75;4.85;;;;;;;;;;5049730;28;20112;-74
2023/04/18 01:31:50;;;;;;;8.13;5.03;;;;;;;;;;5049649;28;20017;-75
2023/04/18 01:36:51;;;;;;;7.28;4.90;;;;;;;;;;5881737;22;20049;-75
2023/04/18 01:39:17;;;;;;;6.78;4.90;;;;;;;;;;4999133;28;20033;-75
2023/04/18 01:41:42;;;;;;;7.65;5.40;;;;;;;;;;4990193;28;20497;-74
2023/04/18 01:44:08;;;;;;;7.93;5.45;;;;;;;;;;4990206;28;20022;-74
2023/04/18 01:46:33;;;;;;;6.70;4.75;;;;;;;;;;4990378;28;20022;-75
2023/04/18 01:48:58;;;;;;;7.32;5.28;;;;;;;;;;4990143;28;20030;-73
2023/04/18 01:51:25;;;;;;;7.88;5.55;;;;;;;;;;4989996;28;20030;-74
2023/04/18 01:53:50;;;;;;;8.00;5.40;;;;;;;;;;4989904;28;20109;-73
2023/04/18 01:56:16;;;;;;;8.48;5.35;;;;;;;;;;4990154;28;20641;-74
2023/04/18 01:58:41;;;;;;;9.38;5.65;;;;;;;;;;4990210;28;20034;-75
2023/04/18 02:01:07;;;;;;;8.85;5.72;;;;;;;;;;4990182;28;20040;-74
2023/04/18 02:03:32;;;;;;;8.35;5.40;;;;;;;;;;4990065;28;20144;-74
2023/04/18 02:05:59;;;;;;;9.40;6.10;;;;;;;;;;4989591;28;20025;-75
2023/04/18 02:08:25;;;;;;;9.82;5.82;;;;;;;;;;4989796;28;20018;-74
2023/04/18 02:10:50;;;;;;;8.40;5.88;;;;;;;;;;4989874;28;20022;-74
2023/04/18 02:13:15;;;;;;;8.52;5.45;;;;;;;;;;4989797;28;20022;-74
2023/04/18 02:15:43;;;;;;;9.43;5.90;;;;;;;;;;4989722;28;20034;-75
2023/04/18 02:18:10;;;;;;;8.20;5.55;;;;;;;;;;4989868;28;20520;-75
2023/04/18 02:20:35;;;;;;;8.95;5.65;;;;;;;;;;4989785;28;20030;-75
2023/04/18 02:23:02;;;;;;;9.82;5.63;;;;;;;;;;4989795;28;20031;-74
2023/04/18 02:25:28;;;;;;;10.40;6.00;;;;;;;;;;4989446;28;20018;-74
2023/04/18 02:27:54;;;;;;;7.65;5.82;;;;;;;;;;4989491;28;20513;-74
2023/04/18 02:30:20;;;;;;;9.77;6.13;;;;;;;;;;4989658;28;20636;-74
2023/04/18 02:32:45;;;;;;;9.20;6.05;;;;;;;;;;4989498;28;20473;-74
2023/04/18 02:35:12;;;;;;;9.27;6.20;;;;;;;;;;4989128;28;20023;-75
2023/04/18 02:37:37;;;;;;;9.82;5.95;;;;;;;;;;4989315;28;20038;-73
2023/04/18 02:40:06;;;;;;;8.82;5.82;;;;;;;;;;4987953;28;20080;-74
2023/04/18 02:42:32;;;;;;;10.52;6.50;;;;;;;;;;4989534;28;20058;-74
2023/04/18 02:44:57;;;;;;;8.95;5.93;;;;;;;;;;4989420;28;20026;-74
2023/04/18 02:47:22;;;;;;;8.68;6.05;;;;;;;;;;4989641;28;20022;-74
2023/04/18 02:49:48;;;;;;;9.68;6.13;;;;;;;;;;4989617;28;20394;-74
2023/04/18 02:52:13;;;;;;;9.95;5.70;;;;;;;;;;4989558;28;20382;-75
2023/04/18 02:54:39;;;;;;;9.85;6.18;;;;;;;;;;4989423;28;20034;-74
2023/04/18 02:57:04;;;;;;;9.65;6.10;;;;;;;;;;4989462;28;20041;-74
2023/04/18 02:59:29;;;;;;;11.57;6.20;;;;;;;;;;4989628;28;20044;-74
2023/04/18 03:01:55;;;;;;;9.20;5.95;;;;;;;;;;4989408;28;20022;-75
2023/04/18 03:04:20;;;;;;;9.88;6.03;;;;;;;;;;4989211;28;20057;-73
2023/04/18 03:06:47;;;;;;;10.50;6.18;;;;;;;;;;4989147;28;20022;-75
2023/04/18 03:09:12;;;;;;;10.43;6.35;;;;;;;;;;4988130;28;20026;-75
2023/04/18 03:11:38;;;;;;;11.15;6.07;;;;;;;;;;4989408;28;20473;-73
2023/04/18 03:14:03;;;;;;;9.75;6.32;;;;;;;;;;4989371;28;20037;-75
2023/04/18 03:16:29;;;;;;;14.00;6.15;;;;;;;;;;4971579;28;20110;-75
2023/04/18 03:18:55;;;;;;;8.60;5.95;;;;;;;;;;4989179;28;20125;-74
2023/04/18 03:21:20;;;;;;;10.65;6.93;;;;;;;;;;4989213;28;20056;-75
2023/04/18 03:23:45;;;;;;;9.68;5.80;;;;;;;;;;4989182;28;20042;-74
2023/04/18 03:26:12;;;;;;;10.45;6.35;;;;;;;;;;4989001;28;20419;-74
2023/04/18 03:28:38;;;;;;;11.18;6.10;;;;;;;;;;5002841;23;20112;-70
2023/04/18 03:31:04;;;;;;;9.38;5.95;;;;;;;;;;4989214;28;20030;-71
2023/04/18 03:33:29;;;;;;;8.95;6.20;;;;;;;;;;4989211;28;20038;-70
2023/04/18 03:35:55;;;;;;;12.00;6.13;;;;;;;;;;4988907;28;20029;-71
2023/04/18 03:38:20;;;;;;;9.35;6.50;;;;;;;;;;4989272;28;20073;-70
2023/04/18 03:40:46;;;;;;;10.30;6.30;;;;;;;;;;4989049;28;20037;-70
2023/04/18 03:43:11;;;;;;;10.15;6.15;;;;;;;;;;4987895;28;20477;-71
2023/04/18 03:45:37;;;;;;;9.07;5.50;;;;;;;;;;4989843;28;20079;-72
2023/04/18 03:48:02;;;;;;;9.30;6.60;;;;;;;;;;4992726;28;20026;-71
2023/04/18 03:50:28;;;;;;;11.18;6.72;;;;;;;;;;4992588;28;20034;-70
2023/04/18 03:52:53;;;;;;;8.77;6.00;;;;;;;;;;4991291;28;20129;-71
2023/04/18 03:55:19;;;;;;;10.15;6.03;;;;;;;;;;4992240;28;20501;-70
2023/04/18 03:57:45;;;;;;;8.77;6.05;;;;;;;;;;4992592;28;20033;-70
2023/04/18 04:00:11;;;;;;;8.88;6.00;;;;;;;;;;4992539;28;20048;-70
2023/04/18 04:02:37;;;;;;;10.38;6.25;;;;;;;;;;4992547;28;20105;-73
2023/04/18 04:05:03;;;;;;;10.02;6.13;;;;;;;;;;4992285;28;20027;-72
2023/04/18 04:07:32;;;;;;;9.38;6.35;;;;;;;;;;4992221;28;20031;-73
2023/04/18 04:09:58;;;;;;;9.88;6.20;;;;;;;;;;4992219;28;20029;-70
2023/04/18 04:12:26;;;;;;;9.70;6.70;;;;;;;;;;4992388;28;20028;-70
2023/04/18 04:14:52;;;;;;;10.68;6.80;;;;;;;;;;4992034;28;20403;-70
2023/04/18 04:17:17;;;;;;;9.90;6.32;;;;;;;;;;4992331;28;20102;-69
2023/04/18 04:19:43;;;;;;;10.40;7.07;;;;;;;;;;4992174;28;20186;-70
2023/04/18 04:22:08;;;;;;;8.88;6.38;;;;;;;;;;4991849;28;20035;-69
2023/04/18 04:24:37;;;;;;;10.68;6.72;;;;;;;;;;4990823;28;20069;-72
2023/04/18 04:27:02;;;;;;;9.15;6.10;;;;;;;;;;4991838;28;20089;-70
2023/04/18 04:29:28;;;;;;;13.02;6.70;;;;;;;;;;4991773;28;20026;-70
2023/04/18 04:31:54;;;;;;;9.88;6.53;;;;;;;;;;4991839;28;20034;-69
2023/04/18 04:34:20;;;;;;;9.07;6.38;;;;;;;;;;4991866;28;20035;-70
2023/04/18 04:36:47;;;;;;;10.18;6.95;;;;;;;;;;4991570;28;20034;-70
2023/04/18 04:39:13;;;;;;;11.25;6.40;;;;;;;;;;4991783;28;20034;-70
2023/04/18 04:41:39;;;;;;;10.00;7.13;;;;;;;;;;4991637;28;20034;-70
2023/04/18 04:44:05;;;;;;;10.70;6.80;;;;;;;;;;4991614;28;20032;-71
2023/04/18 04:46:32;;;;;;;10.10;6.72;;;;;;;;;;4996176;28;20025;-70
2023/04/18 04:48:58;;;;;;;9.95;6.60;;;;;;;;;;5002678;28;20037;-70
2023/04/18 04:51:24;;;;;;;10.73;7.07;;;;;;;;;;5001291;28;20022;-71
2023/04/18 04:53:50;;;;;;;9.93;7.22;;;;;;;;;;5001047;28;20373;-70
2023/04/18 04:56:15;;;;;;;10.20;7.20;;;;;;;;;;4999009;28;20030;-70
2023/04/18 04:58:40;;;;;;;10.75;6.80;;;;;;;;;;4996692;28;20027;-70
2023/04/18 05:01:07;;;;;;;10.30;6.93;;;;;;;;;;4994931;28;20038;-71
2023/04/18 05:03:35;;;;;;;11.75;7.18;;;;;;;;;;4993364;28;20030;-71
2023/04/18 05:06:00;;;;;;;11.23;6.70;;;;;;;;;;4990857;28;20033;-71
2023/04/18 05:08:26;;;;;;;10.23;6.90;;;;;;;;;;4991648;28;20338;-71
2023/04/18 05:10:51;;;;;;;9.98;6.72;;;;;;;;;;4991122;28;20038;-69
2023/04/18 05:13:17;;;;;;;12.00;6.40;;;;;;;;;;4989774;28;20458;-73
2023/04/18 05:15:42;;;;;;;11.88;7.00;;;;;;;;;;4992841;28;20026;-70
2023/04/18 05:18:08;;;;;;;10.18;6.57;;;;;;;;;;4990944;28;20034;-70
2023/04/18 05:20:33;;;;;;;10.32;6.70;;;;;;;;;;4990619;28;20034;-70
2023/04/18 05:22:59;;;;;;;12.07;7.30;;;;;;;;;;4990817;28;20577;-71
2023/04/18 05:25:24;;;;;;;11.73;6.82;;;;;;;;;;4990759;28;20021;-70
2023/04/18 05:27:50;;;;;;;10.25;6.65;;;;;;;;;;4990806;28;20505;-70
2023/04/18 05:30:16;;;;;;;10.40;6.53;;;;;;;;;;4991039;28;20041;-70
2023/04/18 05:32:41;;;;;;;10.27;6.93;;;;;;;;;;4990718;28;20517;-71
2023/04/18 05:35:07;;;;;;;12.40;7.45;;;;;;;;;;4994435;28;20025;-71
2023/04/18 05:37:33;;;;;;;10.73;7.00;;;;;;;;;;5000427;28;20026;-70
2023/04/18 05:39:58;;;;;;;9.38;6.63;;;;;;;;;;4993725;28;20022;-71
2023/04/18 05:42:24;;;;;;;12.07;7.40;;;;;;;;;;4989022;28;20409;-70
2023/04/18 05:44:50;;;;;;;13.15;7.40;;;;;;;;;;4990679;28;20026;-70
2023/04/18 05:47:16;;;;;;;11.85;7.30;;;;;;;;;;4990520;28;20026;-70
2023/04/18 05:49:41;;;;;;;14.82;7.85;;;;;;;;;;4994694;28;20026;-72
2023/04/18 05:52:07;;;;;;;13.60;7.78;;;;;;;;;;4990989;28;20038;-71
2023/04/18 05:54:32;;;;;;;12.30;7.47;;;;;;;;;;4992897;28;20429;-71
2023/04/18 05:56:58;;;;;;;12.45;7.55;;;;;;;;;;4993362;28;20103;-71
2023/04/18 05:59:25;;;;;;;15.07;8.23;;;;;;;;;;4990480;28;20493;-70
2023/04/18 06:01:50;;;;;;;14.48;7.95;;;;;;;;;;4989726;28;20027;-76
2023/04/18 06:04:16;;;;;;;10.65;7.45;;;;;;;;;;4990875;28;20026;-71
2023/04/18 06:06:41;;;;;;;15.15;8.23;;;;;;;;;;4992563;28;20019;-72
2023/04/18 06:09:07;;;;;;;15.20;8.63;;;;;;;;;;4989438;28;20122;-75
2023/04/18 06:11:34;;;;;;;14.70;8.30;;;;;;;;;;4990289;28;20089;-76
2023/04/18 06:14:00;;;;;;;13.48;7.82;;;;;;;;;;4990445;28;20030;-75
2023/04/18 06:16:26;;;;;;;14.88;8.02;;;;;;;;;;4997364;28;20073;-71
2023/04/18 06:18:51;;;;;;;15.13;8.52;;;;;;;;;;5001007;28;20049;-71
2023/04/18 06:21:17;;;;;;;13.15;8.10;;;;;;;;;;5000329;28;20030;-73
2023/04/18 06:23:42;;;;;;;13.32;7.97;;;;;;;;;;5000231;28;20094;-71
2023/04/18 06:26:08;;;;;;;12.05;7.68;;;;;;;;;;4999744;28;20018;-72
2023/04/18 06:28:33;;;;;;;14.75;8.25;;;;;;;;;;4999489;28;20069;-71
2023/04/18 06:30:59;;;;;;;11.32;7.53;;;;;;;;;;4999203;28;20032;-72
2023/04/18 06:33:24;;;;;;;12.07;7.47;;;;;;;;;;4989585;28;20160;-74
2023/04/18 06:35:50;;;;;;;13.98;7.53;;;;;;;;;;4989504;28;20054;-75
2023/04/18 06:38:15;;;;;;;11.95;7.70;;;;;;;;;;4989522;28;20022;-77
2023/04/18 06:40:41;;;;;;;14.82;7.63;;;;;;;;;;4989721;28;20034;-76
2023/04/18 06:43:06;;;;;;;12.93;7.43;;;;;;;;;;4989648;28;20045;-77
2023/04/18 06:45:32;;;;;;;13.10;8.07;;;;;;;;;;4989990;28;20027;-73
2023/04/18 06:48:07;;;;;;;12.15;7.75;;;;;;;;;;4989444;28;20069;-78
2023/04/18 06:50:33;;;;;;;12.18;7.47;;;;;;;;;;4987821;28;20038;-74
2023/04/18 06:52:58;;;;;;;10.45;7.15;;;;;;;;;;4989685;28;20034;-75
2023/04/18 06:55:24;;;;;;;14.88;7.85;;;;;;;;;;4989577;28;20026;-73
2023/04/18 06:57:49;;;;;;;13.38;7.40;;;;;;;;;;4989366;28;20030;-75
2023/04/18 07:00:15;;;;;;;12.57;7.80;;;;;;;;;;4989471;28;20053;-74
2023/04/18 07:02:40;;;;;;;12.38;8.30;;;;;;;;;;4989561;28;20615;-75
2023/04/18 07:05:06;;;;;;;15.60;8.18;;;;;;;;;;4989618;28;20030;-74
2023/04/18 07:07:33;;;;;;;15.40;8.55;;;;;;;;;;4989241;28;20122;-74
2023/04/18 07:09:58;;;;;;;14.57;8.25;;;;;;;;;;4989218;28;20486;-73
2023/04/18 07:12:24;;;;;;;17.25;8.68;;;;;;;;;;4989393;28;20117;-73
2023/04/18 07:14:50;;;;;;;14.15;8.13;;;;;;;;;;4989618;28;20106;-75
2023/04/18 07:17:16;;;;;;;17.80;8.95;;;;;;;;;;4989279;28;20105;-74
2023/04/18 07:19:42;;;;;;;16.40;8.50;;;;;;;;;;4990360;28;20106;-72
2023/04/18 07:22:07;;;;;;;20.00;8.43;;;;;;;;;;4993594;28;20034;-72
2023/04/18 07:24:32;;;;;;;20.73;9.32;;;;;;;;;;4993698;28;20113;-75
2023/04/18 07:26:58;;;;;;;18.63;9.10;;;;;;;;;;5003181;28;20034;-76
2023/04/18 07:29:23;;;;;;;17.70;8.32;;;;;;;;;;5002166;28;20074;-75
2023/04/18 07:31:49;;;;;;;19.90;9.25;;;;;;;;;;5000183;28;20030;-76
2023/04/18 07:34:14;;;;;;;17.33;9.32;;;;;;;;;;4999257;28;20305;-75
2023/04/18 07:36:40;;;;;;;15.55;8.65;;;;;;;;;;4994193;28;20026;-75
2023/04/18 07:39:06;;;;;;;18.38;9.20;;;;;;;;;;4999961;28;20050;-72
2023/04/18 07:41:32;;;;;;;16.88;8.73;;;;;;;;;;4997707;28;20080;-75
2023/04/18 07:43:59;;;;;;;16.60;9.68;;;;;;;;;;5002359;28;20222;-72
2023/04/18 07:46:25;;;;;;;15.57;8.85;;;;;;;;;;5002385;28;20023;-76
2023/04/18 07:48:50;;;;;;;20.27;9.25;;;;;;;;;;5000668;28;20029;-73
2023/04/18 07:51:16;;;;;;;17.70;9.65;;;;;;;;;;4993500;28;20027;-76
2023/04/18 07:53:42;;;;;;;16.33;8.98;;;;;;;;;;4999467;28;20025;-75
2023/04/18 07:56:08;;;;;;;18.45;9.57;;;;;;;;;;5002709;28;20029;-74
2023/04/18 07:58:34;;;;;;;16.75;8.98;;;;;;;;;;4997018;28;20380;-74
2023/04/18 08:01:00;;;;;;;14.43;8.48;;;;;;;;;;4998285;28;20034;-73
2023/04/18 08:03:26;;;;;;;20.10;8.15;;;;;;;;;;5002332;28;20050;-76
2023/04/18 08:05:51;;;;;;;15.68;9.20;;;;;;;;;;5003369;28;20025;-76
2023/04/18 08:08:17;;;;;;;17.27;9.30;;;;;;;;;;5000666;28;20050;-72
2023/04/18 08:10:43;;;;;;;15.90;9.23;;;;;;;;;;5000655;28;20023;-75
2023/04/18 08:13:08;;;;;;;16.15;8.00;;;;;;;;;;5001431;28;20022;-74
2023/04/18 08:15:34;;;;;;;11.45;7.43;;;;;;;;;;5002187;28;20030;-75
2023/04/18 08:18:00;;;;;;;12.77;7.85;;;;;;;;;;4990533;28;20809;-75
2023/04/18 08:20:26;;;;;;;14.82;7.68;;;;;;;;;;4991798;28;20031;-75
2023/04/18 08:22:51;;;;;;;13.75;7.88;;;;;;;;;;4991946;28;20645;-76
2023/04/18 08:25:17;;;;;;;14.15;7.93;;;;;;;;;;4992011;28;20030;-77
2023/04/18 08:27:42;;;;;;;12.05;7.10;;;;;;;;;;4991566;28;20034;-75
2023/04/18 08:30:09;;;;;;;17.52;8.38;;;;;;;;;;4992056;28;20125;-74
2023/04/18 08:32:35;;;;;;;14.80;8.00;;;;;;;;;;4990897;28;20034;-76
2023/04/18 08:35:01;;;;;;;11.95;7.30;;;;;;;;;;4991880;28;20029;-75
2023/04/18 08:37:26;;;;;;;12.52;6.88;;;;;;;;;;4991371;28;20022;-75
2023/04/18 08:39:52;;;;;;;10.35;6.93;;;;;;;;;;4992548;28;20073;-75
2023/04/18 08:42:18;;;;;;;10.65;6.93;;;;;;;;;;4994290;28;20026;-74
2023/04/18 08:44:45;;;;;;;11.07;6.53;;;;;;;;;;4991701;28;20394;-81
2023/04/18 08:47:11;;;;;;;12.38;6.78;;;;;;;;;;4993199;28;20136;-79
2023/04/18 08:49:37;;;;;;;11.65;6.57;;;;;;;;;;4996716;28;20030;-76
2023/04/18 08:52:09;;;;;;;12.52;7.10;;;;;;;;;;4991577;28;20023;-79
2023/04/18 08:54:36;;;;;;;11.15;6.22;;;;;;;;;;4995204;28;20033;-73
2023/04/18 08:57:06;;;;;;;10.85;6.65;;;;;;;;;;4991273;28;20029;-78
2023/04/18 08:59:34;;;;;;;15.73;6.05;;;;;;;;;;4992512;28;20366;-73
2023/04/18 09:02:01;;;;;;;11.85;6.57;;;;;;;;;;4991205;28;20030;-76
2023/04/18 09:04:33;;;;;;;9.10;6.18;;;;;;;;;;4990116;28;20026;-79
2023/04/18 09:06:58;;;;;;;9.30;6.10;;;;;;;;;;4991240;28;20028;-71
2023/04/18 09:09:26;;;;;;;11.00;6.18;;;;;;;;;;4991014;28;20026;-72
2023/04/18 09:12:06;;;;;;;10.00;5.88;;;;;;;;;;4990987;28;20045;-73
2023/04/18 09:14:35;;;;;;;8.43;5.55;;;;;;;;;;4991168;28;20026;-74
2023/04/18 09:17:00;;;;;;;9.20;5.57;;;;;;;;;;4991184;28;20077;-75
2023/04/18 09:19:27;;;;;;;10.00;5.75;;;;;;;;;;4989461;28;20030;-72
2023/04/18 09:22:01;;;;;;;7.85;5.20;;;;;;;;;;4990750;28;20429;-73
2023/04/18 09:24:28;;;;;;;8.32;5.15;;;;;;;;;;4993095;28;20030;-75
2023/04/18 09:26:55;;;;;;;8.63;5.93;;;;;;;;;;4990900;28;20050;-73
2023/04/18 09:29:42;;;;;;;8.32;5.07;;;;;;;;;;4990459;28;20050;-76
2023/04/18 09:32:07;;;;;;;7.97;5.63;;;;;;;;;;4989415;28;20038;-77
2023/04/18 09:34:33;;;;;;;9.10;5.60;;;;;;;;;;4996373;28;20277;-78
2023/04/18 09:37:12;;;;;;;9.05;5.38;;;;;;;;;;4990613;28;20041;-77
2023/04/18 09:39:41;;;;;;;9.00;5.88;;;;;;;;;;4991403;28;20030;-74
2023/04/18 09:42:09;;;;;;;10.43;5.82;;;;;;;;;;4994412;28;20076;-69
2023/04/18 09:44:34;;;;;;;7.30;5.07;;;;;;;;;;4990208;28;20445;-73
2023/04/18 09:47:00;;;;;;;7.75;5.18;;;;;;;;;;4991989;28;20465;-72
2023/04/18 09:49:26;;;;;;;7.35;4.55;;;;;;;;;;4990678;28;20493;-72
2023/04/18 09:51:53;;;;;;;6.65;4.30;;;;;;;;;;4990145;28;20041;-72
2023/04/18 09:54:22;;;;;;;5.72;4.30;;;;;;;;;;4989068;28;20060;-72
2023/04/18 09:56:49;;;;;;;6.63;4.60;;;;;;;;;;4990294;28;20056;-71
2023/04/18 09:59:33;;;;;;;5.57;3.53;;;;;;;;;;4990344;28;20026;-75
2023/04/18 10:02:00;;;;;;;5.10;3.40;;;;;;;;;;4990281;28;20553;-71
2023/04/18 10:04:27;;;;;;;6.40;3.33;;;;;;;;;;4990232;28;20105;-75
2023/04/18 10:06:53;;;;;;;6.05;3.50;;;;;;;;;;4989905;28;20023;-76
2023/04/18 10:09:20;;;;;;;5.25;3.08;;;;;;;;;;4997155;28;20033;-73
2023/04/18 10:11:45;;;;;;;4.95;3.22;;;;;;;;;;4997405;28;20117;-70
2023/04/18 10:14:14;;;;;;;3.85;3.05;;;;;;;;;;4993786;28;20046;-70
2023/04/18 10:16:44;;;;;;;6.70;3.67;;;;;;;;;;4991021;28;20073;-70
2023/04/18 10:19:24;;;;;;;7.83;4.27;;;;;;;;;;4999382;28;20085;-69
2023/04/18 10:21:54;;;;;;;6.43;4.00;;;;;;;;;;4993917;28;20026;-69
2023/04/18 10:24:44;;;;;;;7.75;4.00;;;;;;;;;;4994289;28;20029;-72
2023/04/18 10:27:09;;;;;;;5.35;2.95;;;;;;;;;;4994526;28;20026;-69
2023/04/18 10:29:52;;;;;;;5.75;2.97;;;;;;;;;;4989833;28;20034;-70
2023/04/18 10:32:21;;;;;;;6.18;3.00;;;;;;;;;;4990728;28;20532;-72
2023/04/18 10:34:52;;;;;;;5.13;3.13;;;;;;;;;;4990020;28;20433;-71
2023/04/18 10:37:17;;;;;;;5.78;3.10;;;;;;;;;;4992343;28;20033;-70
2023/04/18 10:39:56;;;;;;;5.55;2.95;;;;;;;;;;4989963;28;20032;-70
2023/04/18 10:42:46;;;;;;;6.07;3.30;;;;;;;;;;4989214;28;20092;-70
2023/04/18 10:45:21;;;;;;;4.32;3.03;;;;;;;;;;4989233;28;20062;-71
2023/04/18 10:47:47;;;;;;;4.50;3.45;;;;;;;;;;4988240;28;20039;-72
2023/04/18 10:50:13;;;;;;;5.85;2.80;;;;;;;;;;4987997;28;20030;-70
2023/04/18 10:52:39;;;;;;;5.97;2.85;;;;;;;;;;4987945;28;20027;-72
2023/04/18 10:55:17;;;;;;;3.78;2.97;;;;;;;;;;4988145;28;20026;-70
2023/04/18 10:57:45;;;;;;;4.78;2.70;;;;;;;;;;4992112;28;20030;-70
2023/04/18 11:00:13;;;;;;;4.63;2.95;;;;;;;;;;4991682;28;20035;-73
2023/04/18 11:02:39;;;;;;;4.50;2.70;;;;;;;;;;4993094;28;20142;-70
2023/04/18 11:05:06;;;;;;;4.00;2.55;;;;;;;;;;4992531;28;20022;-70
2023/04/18 11:07:44;;;;;;;3.13;2.30;;;;;;;;;;4993403;28;20149;-70
2023/04/18 11:10:10;;;;;;;3.72;2.50;;;;;;;;;;4993351;28;20065;-70
2023/04/18 11:12:37;;;;;;;4.35;2.50;;;;;;;;;;4993322;28;20033;-69
2023/04/18 11:15:10;;;;;;;5.95;2.28;;;;;;;;;;4993322;28;20506;-69
2023/04/18 11:17:38;;;;;;;3.85;2.20;;;;;;;;;;4993292;28;20025;-69
2023/04/18 11:20:13;;;;;;;4.32;2.53;;;;;;;;;;4993071;28;20022;-70
2023/04/18 11:22:58;;;;;;;4.68;2.55;;;;;;;;;;4993206;28;20023;-70
2023/04/18 11:25:29;;;;;;;5.35;2.25;;;;;;;;;;4993295;28;20046;-70
2023/04/18 11:27:58;;;;;;;2.85;2.20;;;;;;;;;;4992923;28;20035;-70
2023/04/18 11:30:23;;;;;;;3.42;2.20;;;;;;;;;;4992977;28;20062;-70
2023/04/18 11:32:50;;;;;;;3.05;2.13;;;;;;;;;;4993001;28;20490;-69
2023/04/18 11:35:16;;;;;;;4.70;2.70;;;;;;;;;;4993033;28;20023;-70
2023/04/18 11:37:44;;;;;;;5.25;2.50;;;;;;;;;;4992621;28;20049;-69
2023/04/18 11:40:12;;;;;;;3.53;2.28;;;;;;;;;;4992817;28;20571;-70
2023/04/18 11:42:39;;;;;;;4.68;2.30;;;;;;;;;;4992844;28;20030;-69
2023/04/18 11:45:12;;;;;;;3.25;2.20;;;;;;;;;;4992853;28;20045;-69
2023/04/18 11:47:40;;;;;;;3.70;2.10;;;;;;;;;;4992877;28;20042;-69
2023/04/18 11:50:07;;;;;;;4.15;2.10;;;;;;;;;;4993012;28;20076;-71
2023/04/18 11:52:34;;;;;;;4.85;2.03;;;;;;;;;;4992333;28;20033;-70
2023/04/18 11:55:23;;;;;;;2.95;2.22;;;;;;;;;;4992712;28;20504;-70
2023/04/18 11:57:56;;;;;;;5.07;2.38;;;;;;;;;;4992654;28;20061;-69
2023/04/18 12:00:37;;;;;;;4.00;2.33;;;;;;;;;;4992508;28;20532;-71
2023/04/18 12:03:08;;;;;;;2.78;1.98;;;;;;;;;;4991121;28;20026;-72
2023/04/18 12:05:36;;;;;;;4.50;2.08;;;;;;;;;;4990558;28;20022;-71
2023/04/18 12:08:13;;;;;;;2.80;1.98;;;;;;;;;;4991451;28;20054;-71
2023/04/18 12:10:52;;;;;;;3.38;2.10;;;;;;;;;;4992098;28;20540;-71
2023/04/18 12:13:23;;;;;;;2.80;2.00;;;;;;;;;;4990968;28;20516;-71
2023/04/18 12:15:48;;;;;;;4.53;2.10;;;;;;;;;;4992293;28;20022;-70
2023/04/18 12:18:17;;;;;;;4.10;2.13;;;;;;;;;;4992301;28;20079;-70
2023/04/18 12:20:51;;;;;;;3.80;1.90;;;;;;;;;;4991858;28;20072;-71
2023/04/18 12:23:44;;;;;;;3.20;2.00;;;;;;;;;;4991982;28;20462;-70
2023/04/18 12:26:17;;;;;;;5.03;2.67;;;;;;;;;;4989830;28;20034;-70
2023/04/18 12:28:50;;;;;;;4.85;2.45;;;;;;;;;;4991714;28;20039;-71
2023/04/18 12:31:16;;;;;;;6.38;3.55;;;;;;;;;;4992019;28;20130;-73
2023/04/18 12:33:41;;;;;;;3.53;2.00;;;;;;;;;;4991956;28;20423;-70
2023/04/18 12:36:07;;;;;;;4.05;2.15;;;;;;;;;;4991874;28;20022;-70
2023/04/18 12:38:34;;;;;;;6.05;2.63;;;;;;;;;;4991919;28;20105;-71
2023/04/18 12:40:59;;;;;;;5.60;2.10;;;;;;;;;;4991723;28;20118;-71
2023/04/18 12:43:25;;;;;;;2.90;1.67;;;;;;;;;;4991479;28;20113;-73
2023/04/18 12:45:50;;;;;;;3.15;2.10;;;;;;;;;;4991640;28;20079;-71
2023/04/18 12:48:16;;;;;;;3.22;2.00;;;;;;;;;;4991717;28;20077;-72
2023/04/18 12:50:41;;;;;;;4.43;2.10;;;;;;;;;;4991208;28;20076;-73
2023/04/18 12:53:07;;;;;;;2.60;1.88;;;;;;;;;;4991679;28;20037;-70
2023/04/18 12:55:32;;;;;;;2.65;1.75;;;;;;;;;;4991628;28;20086;-70
2023/04/18 12:57:57;;;;;;;3.95;1.98;;;;;;;;;;4991530;28;20402;-71
2023/04/18 13:00:25;;;;;;;2.92;1.83;;;;;;;;;;4991217;28;20500;-71
2023/04/18 13:02:54;;;;;;;3.63;2.30;;;;;;;;;;4991334;28;20052;-71
2023/04/18 13:05:21;;;;;;;3.15;2.20;;;;;;;;;;4991327;28;20026;-70
2023/04/18 13:07:48;;;;;;;3.20;2.20;;;;;;;;;;4991077;28;20027;-71
2023/04/18 13:10:17;;;;;;;4.95;2.00;;;;;;;;;;4991190;28;20089;-71
2023/04/18 13:12:43;;;;;;;4.07;2.05;;;;;;;;;;4991232;28;20101;-71
2023/04/18 13:15:09;;;;;;;3.30;2.03;;;;;;;;;;4991177;28;20018;-71
2023/04/18 13:17:35;;;;;;;2.70;1.80;;;;;;;;;;4990851;28;20023;-71
2023/04/18 13:20:03;;;;;;;3.55;1.92;;;;;;;;;;4990952;28;20038;-72
2023/04/18 13:22:32;;;;;;;2.83;2.00;;;;;;;;;;4989447;28;20038;-77
2023/04/18 13:24:58;;;;;;;2.58;1.80;;;;;;;;;;4991066;28;20101;-70
2023/04/18 13:27:23;;;;;;;3.50;1.90;;;;;;;;;;4990765;28;20137;-71
2023/04/18 13:29:49;;;;;;;3.28;2.05;;;;;;;;;;4990887;28;20354;-71
2023/04/18 13:32:14;;;;;;;3.38;2.10;;;;;;;;;;4990864;28;20039;-71
2023/04/18 13:34:45;;;;;;;2.50;1.77;;;;;;;;;;4990910;28;20490;-70
2023/04/18 13:37:11;;;;;;;2.40;1.75;;;;;;;;;;4990763;28;20545;-71
2023/04/18 13:39:37;;;;;;;2.75;1.83;;;;;;;;;;4990433;28;20042;-71
2023/04/18 13:42:03;;;;;;;2.67;1.77;;;;;;;;;;4990506;28;20034;-71
2023/04/18 13:44:30;;;;;;;3.00;1.65;;;;;;;;;;4990515;28;20084;-71
2023/04/18 13:46:55;;;;;;;2.58;1.80;;;;;;;;;;4990694;28;20486;-71
2023/04/18 13:49:21;;;;;;;3.75;1.98;;;;;;;;;;4990424;28;20576;-70
2023/04/18 13:51:46;;;;;;;2.30;1.60;;;;;;;;;;4990582;28;20198;-71
2023/04/18 13:54:14;;;;;;;2.55;1.80;;;;;;;;;;4990474;28;20030;-71
2023/04/18 13:56:40;;;;;;;2.42;1.70;;;;;;;;;;4990361;28;20092;-71
2023/04/18 13:59:05;;;;;;;2.50;1.73;;;;;;;;;;4990526;28;20030;-71
2023/04/18 14:01:31;;;;;;;3.97;1.80;;;;;;;;;;4990050;28;20438;-71
2023/04/18 14:03:56;;;;;;;3.47;1.80;;;;;;;;;;4990366;28;20715;-71
2023/04/18 14:06:21;;;;;;;2.25;1.50;;;;;;;;;;4990230;28;20030;-71
2023/04/18 14:08:49;;;;;;;3.38;1.70;;;;;;;;;;4990283;28;20026;-71
2023/04/18 14:11:15;;;;;;;3.35;1.63;;;;;;;;;;4989926;28;20027;-71
2023/04/18 14:13:40;;;;;;;2.72;1.80;;;;;;;;;;4990298;28;20034;-71
2023/04/18 14:16:06;;;;;;;4.38;1.90;;;;;;;;;;4988723;28;20065;-71
2023/04/18 14:18:31;;;;;;;3.08;1.70;;;;;;;;;;4990021;28;20034;-70
2023/04/18 14:20:56;;;;;;;2.92;1.85;;;;;;;;;;4989744;28;20046;-70
2023/04/18 14:23:22;;;;;;;2.42;1.60;;;;;;;;;;4990096;28;20030;-71
2023/04/18 14:25:47;;;;;;;2.28;1.60;;;;;;;;;;4990108;28;20034;-70
2023/04/18 14:28:13;;;;;;;2.88;1.58;;;;;;;;;;4989942;28;20129;-70
2023/04/18 14:30:38;;;;;;;2.17;1.52;;;;;;;;;;4988995;28;20398;-70
2023/04/18 14:33:05;;;;;;;2.65;1.70;;;;;;;;;;4989773;28;20532;-71
2023/04/18 14:35:30;;;;;;;3.30;1.58;;;;;;;;;;4989728;28;20521;-71
2023/04/18 14:37:56;;;;;;;2.10;1.50;;;;;;;;;;4989841;28;20030;-70
2023/04/18 14:40:22;;;;;;;2.15;1.60;;;;;;;;;;4989810;28;20458;-70